ซานฟรานซิสโก, CA

01:44 AM PDT วัน ตุลาคม 25, 2014 (GMT -0700)
SOMA - Near Van Ness | Change Station
CLOSE
Current Station
Personal Weather Stations
Location: San Francisco, CA
Elevation: 49 ft
Nearby Weather Stations

Elev 49 ft 37.77 °N, 122.42 °W | Updated 16 seconds ago

มีเมฆคลุมไปทั่ว
มีเมฆคลุมไปทั่ว
67.0 ฟาเรนไฮน์
Feels Like 67.0 ฟาเรนไฮน์
N
8.0
ลม ความผันแปร ลม from ทางทิศตะวันออกและทิศตะวันออกเฉียงใต้
Gusts 0.0 mph

วันนี้
High -- | Low -- ฟาเรนไฮน์
--% Chance of Precip.
Yesterday
High -- | Low -- ฟาเรนไฮน์
Precip. -- นิ้ว
7:27 AM 6:18 PM
พระจันทร์ใหม่, 2% visible
ความดัน 29.92 นิ้ว
ทัศนวิสัย 8.0 ไมล์
เมฆ มีเมฆคลุมไปทั่ว 4600 ft
อุณหภูมิที่อากาศอาจจับตัวเป็นหยาดน้ำค้าง 56 ฟาเรนไฮน์
ความชื้น 69%
Rainfall 0.00 นิ้ว
Snow Depth Not available.
UV 0 out of 12
Pollen 2.60 out of 12
โอโซน ดี
PM2.5 ดี
Flu Activity Sporadic
METAR KSFO 250756Z 17008KT 8SM OVC046 21/13 A2992 RMK AO2 SLP131 T02060128 402280156 $

More Conditions Fewer Conditions

ความดัน 29.92 นิ้ว
ทัศนวิสัย 8.0 ไมล์
เมฆ มีเมฆคลุมไปทั่ว 4600 ft
อุณหภูมิที่อากาศอาจจับตัวเป็นหยาดน้ำค้าง 56 ฟาเรนไฮน์
ความชื้น 69%
Rainfall 0.00 นิ้ว
Snow Depth Not available.
UV 0 out of 12
Pollen 2.60 out of 12
โอโซน ดี
PM2.5 ดี
Flu Activity Sporadic
METAR KSFO 250756Z 17008KT 8SM OVC046 21/13 A2992 RMK AO2 SLP131 T02060128 402280156 $

More Conditions Fewer Conditions

10-Day Weather Forecast

Almanac

ดาราศาสตร์

Oct. 25, 2014 Rise Set
Actual Time 7:27 AM PDT 6:18 PM PDT
Civil Twilight 7:01 AM PDT 6:45 PM PDT
Nautical Twilight 6:30 AM PDT 7:16 PM PDT
Astronomical Twilight 5:59 AM PDT 7:46 PM PDT
Moon 9:10 AM PDT 7:47 PM PDT
Length Of Visible Light 11h 44m
ความยาวของวัน
10h 51m
Tomorrow will be 2m 14s shorter.
พระจันทร์ใหม่, 2% of the Moon is Illuminated
วันนี้
พระจันทร์ใหม่
Oct 30
ไตรมาสแรก
Nov 6
พระจันทร์เต็มดวง
Nov 14
ไตรมาสล่าสุด
Nov 22
New

Today's Extremes

State Highs State Lows

Community

WunderPhotos

Upload Photos

1,764,791 photos uploaded!

Nearby

Air Quality

  Air Quality AQ Index Pollutant
Yesterday ดี
PM2.5
Yesterday ดี
OZONE
Current ดี
OZONE
Current ดี
PM2.5
วันเสาร์ ดี
OZONE
วันอาทิตย์ ดี
OZONE
วันจันทร์ กลั่นกรอง
PM2.5
วันอังคาร กลั่นกรอง
PM2.5
วันพุธ กลั่นกรอง
PM2.5

Snow Depth

Station Depth Elevation
Blue Lakes 0 in 8000 ft
Echo Peak 1 in 7800 ft
Forestdale Creek 0 in 8029 ft
Rubicon #2 1 in 7500 ft
Fallen Leaf 0 in 6300 ft

Earthquake Activity

City Distance Mag. Time & Date
Coalinga, California 162 ไมล์ 2.5 11:01 PM PDT
2014-10-24
Minimum magnitude displayed is 2.5.

Coastal Water Temperatures

สถานที่ อุณหภูมิ
No Stations Reporting

Nearby Weather Stations